0MA9 weather

Lleia Kyle O'Meara Heliport
Westminster, Massachusetts, United States

Public forecast

Using degrees Fahrenheit for public forecast. Weather courtesy of forecast.io.

Closest aviation weather report (METAR) to Lleia Kyle O'Meara Heliport

Closest report is Fitchburg Municipal Airport, 7.3 nm (13.5 km) ENE. Retrieved 2020/01/18 07:52 UTC (22 minutes ago):

KFIT 180752Z AUTO 29005KT 10SM CLR M11/M21 A3057 RMK AO2 SLP359 T11111206

Closest aviation forecast (TAF) to Lleia Kyle O'Meara Heliport

Closest forecast is Worcester Regional Airport, 14.2 nm (26.4 km) S. Retrieved 2020/01/18 06:33 UTC (2 hours ago):

TAF KORH 180530Z 1806/1906 30014G20KT P6SM SKC FM181900 18004KT P6SM VCSH OVC060 FM182100 17005KT 1SM -SN BR OVC010 FM190000 14005KT 1/4SM +SN FZFG OVC004 FM190200 16005KT 1/2SM SN FZFG OVC006 FM190500 20005KT 1SM -SN BR OVC008